Time,TemperatureF,DewpointF,PressureIn,WindDirection,WindDirectionDegrees,WindSpeedMPH,WindSpeedGustMPH,Humidity,HourlyPrecipIn,Conditions,Clouds,dailyrainin,SoftwareType,DateUTC
2013-01-09 00:03:00,32.9,29.7,30.05,WSW,248,9.2,9.3,88,0.00,CLR,,0.00,WeatherDisplay:10.37,2013-01-09 06:03:00,
2013-01-09 00:08:00,32.5,29.4,30.05,WSW,248,11.1,11.1,88,0.00,CLR,,0.00,WeatherDisplay:10.37,2013-01-09 06:08:00,
2013-01-09 00:13:00,32.4,29.2,30.05,WSW,248,10.4,10.7,88,0.00,CLR,,0.00,WeatherDisplay:10.37,2013-01-09 06:13:00,
2013-01-09 00:18:00,32.4,29.2,30.05,WSW,248,11.5,12.2,88,0.00,CLR,,0.00,WeatherDisplay:10.37,2013-01-09 06:18:00,
2013-01-09 00:23:00,32.2,29.3,30.06,WSW,248,9.2,9.2,89,0.00,CLR,,0.00,WeatherDisplay:10.37,2013-01-09 06:23:00,
2013-01-09 00:28:00,32.2,29.3,30.06,WSW,248,10.4,10.7,89,0.00,CLR,,0.00,WeatherDisplay:10.37,2013-01-09 06:28:00,
2013-01-09 00:33:00,32.2,29.3,30.07,WSW,248,9.2,10.1,89,0.00,CLR,,0.00,WeatherDisplay:10.37,2013-01-09 06:33:00,
2013-01-09 00:38:00,32.2,29.3,30.07,WSW,248,8.1,8.7,89,0.00,CLR,,0.00,WeatherDisplay:10.37,2013-01-09 06:38:00,
2013-01-09 00:43:00,32.2,29.3,30.07,WSW,248,9.2,9.2,89,0.00,CLR,,0.00,WeatherDisplay:10.37,2013-01-09 06:43:00,
2013-01-09 00:48:00,32.0,29.1,30.07,WSW,248,6.9,7.0,89,0.00,CLR,,0.00,WeatherDisplay:10.37,2013-01-09 06:48:00,
2013-01-09 00:53:00,31.8,28.9,30.07,WSW,248,8.1,8.4,89,0.00,CLR,,0.00,WeatherDisplay:10.37,2013-01-09 06:53:00,
2013-01-09 00:58:00,31.6,28.8,30.08,WSW,248,9.2,9.8,89,0.00,CLR,,0.00,WeatherDisplay:10.37,2013-01-09 06:58:00,
2013-01-09 01:03:00,31.6,28.8,30.08,WSW,248,10.4,11.4,89,0.00,CLR,,0.00,WeatherDisplay:10.37,2013-01-09 07:03:00,
2013-01-09 01:08:00,31.5,28.6,30.08,WSW,248,10.5,10.9,89,0.00,CLR,,0.00,WeatherDisplay:10.37,2013-01-09 07:08:00,
2013-01-09 01:13:00,31.5,28.6,30.08,WSW,248,9.2,9.2,89,0.00,CLR,,0.00,WeatherDisplay:10.37,2013-01-09 07:13:00,
2013-01-09 01:18:00,31.5,28.6,30.08,WSW,248,10.3,10.3,89,0.00,CLR,,0.00,WeatherDisplay:10.37,2013-01-09 07:18:00,
2013-01-09 01:23:00,31.3,28.4,30.08,WSW,248,8.1,8.2,89,0.00,CLR,,0.00,WeatherDisplay:10.37,2013-01-09 07:23:00,
2013-01-09 01:28:00,31.1,28.2,30.08,WSW,248,9.2,9.5,89,0.00,CLR,,0.00,WeatherDisplay:10.37,2013-01-09 07:28:00,
2013-01-09 01:33:00,30.9,28.1,30.09,WSW,248,10.4,10.4,89,0.00,CLR,,0.00,WeatherDisplay:10.37,2013-01-09 07:33:00,
2013-01-09 01:38:00,30.9,28.1,30.09,WSW,248,9.2,10.3,89,0.00,CLR,,0.00,WeatherDisplay:10.37,2013-01-09 07:38:00,
2013-01-09 01:43:00,30.7,28.2,30.09,WSW,248,9.2,9.8,90,0.00,CLR,,0.00,WeatherDisplay:10.37,2013-01-09 07:43:00,
2013-01-09 01:48:00,30.7,28.2,30.10,WSW,248,11.5,11.5,90,0.00,CLR,,0.00,WeatherDisplay:10.37,2013-01-09 07:48:00,
2013-01-09 01:53:00,30.7,28.2,30.09,WSW,248,9.2,9.5,90,0.00,CLR,,0.00,WeatherDisplay:10.37,2013-01-09 07:53:00,
2013-01-09 01:58:00,30.9,28.3,30.10,WSW,248,9.7,10.4,90,0.00,CLR,,0.00,WeatherDisplay:10.37,2013-01-09 07:58:00,
2013-01-09 02:03:00,31.1,28.5,30.10,WSW,248,10.0,10.5,90,0.00,CLR,,0.00,WeatherDisplay:10.37,2013-01-09 08:03:00,
2013-01-09 02:08:00,31.1,28.5,30.11,WSW,248,9.2,9.2,90,0.00,CLR,,0.00,WeatherDisplay:10.37,2013-01-09 08:08:00,
2013-01-09 02:13:00,31.3,28.7,30.12,WSW,248,7.3,7.8,90,0.00,CLR,,0.00,WeatherDisplay:10.37,2013-01-09 08:13:00,
2013-01-09 02:18:00,31.3,28.7,30.11,WSW,248,11.5,12.2,90,0.00,CLR,,0.00,WeatherDisplay:10.37,2013-01-09 08:18:00,
2013-01-09 02:23:00,31.3,28.7,30.12,WSW,248,11.6,12.4,90,0.00,CLR,,0.00,WeatherDisplay:10.37,2013-01-09 08:23:00,
2013-01-09 02:28:00,31.3,28.7,30.12,WSW,248,12.7,13.0,90,0.00,CLR,,0.00,WeatherDisplay:10.37,2013-01-09 08:28:00,
2013-01-09 02:33:00,31.3,28.7,30.12,WSW,248,11.5,11.5,90,0.00,CLR,,0.00,WeatherDisplay:10.37,2013-01-09 08:33:00,
2013-01-09 02:38:00,31.3,28.7,30.13,WSW,248,9.2,9.8,90,0.00,CLR,,0.00,WeatherDisplay:10.37,2013-01-09 08:38:00,
2013-01-09 02:43:00,31.3,28.7,30.13,WSW,248,9.2,10.4,90,0.00,CLR,,0.00,WeatherDisplay:10.37,2013-01-09 08:43:00,
2013-01-09 02:48:00,31.1,28.5,30.13,WSW,248,8.1,8.2,90,0.00,CLR,,0.00,WeatherDisplay:10.37,2013-01-09 08:48:00,
2013-01-09 02:53:00,30.9,28.3,30.14,WSW,248,10.4,11.3,90,0.00,CLR,,0.00,WeatherDisplay:10.37,2013-01-09 08:53:00,
2013-01-09 02:58:00,30.6,27.7,30.14,WSW,248,9.2,9.8,89,0.00,CLR,,0.00,WeatherDisplay:10.37,2013-01-09 08:58:00,
2013-01-09 03:03:00,30.6,27.7,30.14,WSW,248,9.5,9.9,89,0.00,CLR,,0.00,WeatherDisplay:10.37,2013-01-09 09:03:00,
2013-01-09 03:08:00,30.6,28.0,30.14,WSW,248,10.4,10.4,90,0.00,CLR,,0.00,WeatherDisplay:10.37,2013-01-09 09:08:00,
2013-01-09 03:13:00,30.4,27.8,30.14,WSW,248,9.2,9.3,90,0.00,CLR,,0.00,WeatherDisplay:10.37,2013-01-09 09:13:00,
2013-01-09 03:18:00,30.6,28.0,30.14,SW,225,9.2,9.3,90,0.00,CLR,,0.00,WeatherDisplay:10.37,2013-01-09 09:18:00,
2013-01-09 03:23:00,30.6,28.0,30.15,WSW,248,11.5,11.5,90,0.00,CLR,,0.00,WeatherDisplay:10.37,2013-01-09 09:23:00,
2013-01-09 03:28:00,30.7,28.2,30.15,WSW,248,12.2,12.7,90,0.00,CLR,,0.00,WeatherDisplay:10.37,2013-01-09 09:28:00,
2013-01-09 03:33:00,31.1,28.5,30.15,WSW,248,12.7,12.7,90,0.00,CLR,,0.00,WeatherDisplay:10.37,2013-01-09 09:33:00,
2013-01-09 03:38:00,31.6,29.3,30.15,WSW,248,15.4,16.5,91,0.00,CLR,,0.00,WeatherDisplay:10.37,2013-01-09 09:38:00,
2013-01-09 03:43:00,32.2,29.8,30.15,WSW,248,12.7,13.9,91,0.00,CLR,,0.00,WeatherDisplay:10.37,2013-01-09 09:43:00,
2013-01-09 03:48:00,32.2,29.8,30.15,WSW,248,12.7,12.7,91,0.00,CLR,,0.00,WeatherDisplay:10.37,2013-01-09 09:48:00,
2013-01-09 03:53:00,32.4,30.0,30.15,West,270,12.7,13.6,91,0.00,CLR,,0.00,WeatherDisplay:10.37,2013-01-09 09:53:00,
2013-01-09 03:58:00,32.4,29.8,30.16,WSW,248,11.5,12.4,90,0.00,CLR,,0.00,WeatherDisplay:10.37,2013-01-09 09:58:00,
2013-01-09 04:03:00,32.2,29.6,30.16,West,270,11.5,12.2,90,0.00,CLR,,0.00,WeatherDisplay:10.37,2013-01-09 10:03:00,
2013-01-09 04:08:00,32.2,29.6,30.17,WSW,248,9.2,9.3,90,0.00,CLR,,0.00,WeatherDisplay:10.37,2013-01-09 10:08:00,
2013-01-09 04:13:00,32.0,29.4,30.17,WSW,248,9.2,9.2,90,0.00,CLR,,0.00,WeatherDisplay:10.37,2013-01-09 10:13:00,
2013-01-09 04:18:00,31.8,29.2,30.17,West,270,9.2,9.3,90,0.00,CLR,,0.00,WeatherDisplay:10.37,2013-01-09 10:18:00,
2013-01-09 04:23:00,31.8,29.2,30.17,WSW,248,9.2,9.3,90,0.00,CLR,,0.00,WeatherDisplay:10.37,2013-01-09 10:23:00,
2013-01-09 04:28:00,31.8,29.2,30.18,WSW,248,9.5,9.5,90,0.00,CLR,,0.00,WeatherDisplay:10.37,2013-01-09 10:28:00,
2013-01-09 04:33:00,31.8,29.2,30.18,West,270,9.2,9.8,90,0.00,CLR,,0.00,WeatherDisplay:10.37,2013-01-09 10:33:00,
2013-01-09 04:38:00,32.0,29.4,30.18,WSW,248,8.1,8.7,90,0.00,CLR,,0.00,WeatherDisplay:10.37,2013-01-09 10:38:00,
2013-01-09 04:43:00,31.8,29.2,30.18,West,270,8.1,8.1,90,0.00,CLR,,0.00,WeatherDisplay:10.37,2013-01-09 10:43:00,
2013-01-09 04:48:00,31.6,29.0,30.18,West,270,8.1,8.3,90,0.00,CLR,,0.00,WeatherDisplay:10.37,2013-01-09 10:48:00,
2013-01-09 04:53:00,31.6,29.0,30.18,West,270,8.4,9.0,90,0.00,CLR,,0.00,WeatherDisplay:10.37,2013-01-09 10:53:00,
2013-01-09 04:58:00,31.5,28.9,30.18,West,270,9.2,9.2,90,0.00,CLR,,0.00,WeatherDisplay:10.37,2013-01-09 10:58:00,
2013-01-09 05:03:00,31.5,28.9,30.18,West,270,6.9,7.7,90,0.00,CLR,,0.00,WeatherDisplay:10.37,2013-01-09 11:03:00,
2013-01-09 05:08:00,31.5,28.9,30.18,West,270,8.1,8.7,90,0.00,CLR,,0.00,WeatherDisplay:10.37,2013-01-09 11:08:00,
2013-01-09 05:13:00,31.5,28.9,30.17,West,270,8.1,8.4,90,0.00,CLR,,0.00,WeatherDisplay:10.37,2013-01-09 11:13:00,
2013-01-09 05:18:00,31.5,28.9,30.17,West,270,9.2,9.2,90,0.00,CLR,,0.00,WeatherDisplay:10.37,2013-01-09 11:18:00,
2013-01-09 05:23:00,31.5,28.9,30.18,WSW,248,13.5,13.5,90,0.00,CLR,,0.00,WeatherDisplay:10.37,2013-01-09 11:23:00,
2013-01-09 05:28:00,31.3,28.7,30.18,WSW,248,10.4,10.4,90,0.00,CLR,,0.00,WeatherDisplay:10.37,2013-01-09 11:28:00,
2013-01-09 05:33:00,31.3,28.7,30.18,West,270,9.2,9.5,90,0.00,CLR,,0.00,WeatherDisplay:10.37,2013-01-09 11:33:00,
2013-01-09 05:38:00,31.1,28.5,30.18,West,270,9.5,10.1,90,0.00,CLR,,0.00,WeatherDisplay:10.37,2013-01-09 11:38:00,
2013-01-09 05:43:00,31.1,28.5,30.18,WSW,248,10.3,10.3,90,0.00,CLR,,0.00,WeatherDisplay:10.37,2013-01-09 11:43:00,
2013-01-09 05:48:00,30.9,28.3,30.19,WSW,248,9.2,9.2,90,0.00,CLR,,0.00,WeatherDisplay:10.37,2013-01-09 11:48:00,
2013-01-09 05:53:00,30.6,28.0,30.19,WSW,248,11.5,12.4,90,0.00,CLR,,0.00,WeatherDisplay:10.37,2013-01-09 11:53:00,
2013-01-09 05:58:00,30.6,28.0,30.19,WSW,248,11.5,11.9,90,0.00,CLR,,0.00,WeatherDisplay:10.37,2013-01-09 11:58:00,
2013-01-09 06:03:00,30.6,28.0,30.19,WSW,248,9.2,9.2,90,0.00,CLR,,0.00,WeatherDisplay:10.37,2013-01-09 12:03:00,
2013-01-09 06:08:00,30.6,28.0,30.18,WSW,248,8.1,8.1,90,0.00,CLR,,0.00,WeatherDisplay:10.37,2013-01-09 12:08:00,
2013-01-09 06:13:00,30.4,27.8,30.19,WSW,248,8.1,8.1,90,0.00,CLR,,0.00,WeatherDisplay:10.37,2013-01-09 12:13:00,
2013-01-09 06:18:00,30.2,27.3,30.19,WSW,248,8.1,8.1,89,0.00,CLR,,0.00,WeatherDisplay:10.37,2013-01-09 12:18:00,
2013-01-09 06:23:00,29.8,27.0,30.19,WSW,248,6.9,7.5,89,0.00,CLR,,0.00,WeatherDisplay:10.37,2013-01-09 12:23:00,
2013-01-09 06:28:00,29.3,26.5,30.19,West,270,3.8,4.1,89,0.00,CLR,,0.00,WeatherDisplay:10.37,2013-01-09 12:28:00,
2013-01-09 06:33:00,29.3,26.5,30.20,WSW,248,6.9,6.9,89,0.00,CLR,,0.00,WeatherDisplay:10.37,2013-01-09 12:33:00,
2013-01-09 06:38:00,29.1,26.3,30.20,WSW,248,6.9,7.5,89,0.00,CLR,,0.00,WeatherDisplay:10.37,2013-01-09 12:38:00,
2013-01-09 06:43:00,28.9,26.1,30.20,West,270,2.3,2.3,89,0.00,CLR,,0.00,WeatherDisplay:10.37,2013-01-09 12:43:00,
2013-01-09 06:48:00,28.8,25.9,30.20,WSW,248,5.1,5.5,89,0.00,CLR,,0.00,WeatherDisplay:10.37,2013-01-09 12:48:00,
2013-01-09 06:53:00,28.6,25.8,30.20,WSW,248,7.0,7.0,89,0.00,CLR,,0.00,WeatherDisplay:10.37,2013-01-09 12:53:00,
2013-01-09 06:58:00,28.2,25.4,30.21,West,270,4.6,4.6,89,0.00,CLR,,0.00,WeatherDisplay:10.37,2013-01-09 12:58:00,
2013-01-09 07:03:00,28.0,25.2,30.21,West,270,1.1,1.2,89,0.00,CLR,,0.00,WeatherDisplay:10.37,2013-01-09 13:03:00,
2013-01-09 07:08:00,28.0,25.2,30.21,West,270,3.5,3.5,89,0.00,CLR,,0.00,WeatherDisplay:10.37,2013-01-09 13:08:00,
2013-01-09 07:13:00,28.0,25.2,30.20,West,270,4.6,4.6,89,0.00,CLR,,0.00,WeatherDisplay:10.37,2013-01-09 13:13:00,
2013-01-09 07:18:00,28.0,25.5,30.21,West,270,5.8,5.8,90,0.00,CLR,,0.00,WeatherDisplay:10.37,2013-01-09 13:18:00,
2013-01-09 07:23:00,27.9,25.3,30.21,West,270,7.0,7.3,90,0.00,CLR,,0.00,WeatherDisplay:10.37,2013-01-09 13:23:00,
2013-01-09 07:28:00,27.7,24.9,30.20,West,270,6.9,6.9,89,0.00,CLR,,0.00,WeatherDisplay:10.37,2013-01-09 13:28:00,
2013-01-09 07:33:00,27.5,24.7,30.22,West,270,3.8,4.1,89,0.00,CLR,,0.00,WeatherDisplay:10.37,2013-01-09 13:33:00,
2013-01-09 07:38:00,27.0,24.2,30.21,WSW,248,8.1,8.1,89,0.00,CLR,,0.00,WeatherDisplay:10.37,2013-01-09 13:38:00,
2013-01-09 07:43:00,26.8,24.0,30.22,WSW,248,6.9,6.9,89,0.00,CLR,,0.00,WeatherDisplay:10.37,2013-01-09 13:43:00,
2013-01-09 07:48:00,26.4,23.6,30.22,WSW,248,8.1,8.1,89,0.00,CLR,,0.00,WeatherDisplay:10.37,2013-01-09 13:48:00,
2013-01-09 07:53:00,26.4,23.6,30.22,WSW,248,8.1,8.1,89,0.00,CLR,,0.00,WeatherDisplay:10.37,2013-01-09 13:53:00,
2013-01-09 07:58:00,26.8,24.0,30.23,WSW,248,7.3,7.8,89,0.00,CLR,,0.00,WeatherDisplay:10.37,2013-01-09 13:58:00,
2013-01-09 08:03:00,26.8,24.0,30.23,WSW,248,8.1,8.1,89,0.00,CLR,,0.00,WeatherDisplay:10.37,2013-01-09 14:03:00,
2013-01-09 08:08:00,26.8,24.0,30.23,WSW,248,8.1,8.1,89,0.00,CLR,,0.00,WeatherDisplay:10.37,2013-01-09 14:08:00,
2013-01-09 08:13:00,27.0,23.9,30.25,WSW,248,9.2,9.8,88,0.00,CLR,,0.00,WeatherDisplay:10.37,2013-01-09 14:13:00,
2013-01-09 08:18:00,26.8,23.7,30.25,WSW,248,8.1,8.1,88,0.00,CLR,,0.00,WeatherDisplay:10.37,2013-01-09 14:18:00,
2013-01-09 08:23:00,26.8,23.7,30.26,WSW,248,9.2,9.3,88,0.00,CLR,,0.00,WeatherDisplay:10.37,2013-01-09 14:23:00,
2013-01-09 08:28:00,27.0,23.9,30.26,WSW,248,9.2,9.2,88,0.00,CLR,,0.00,WeatherDisplay:10.37,2013-01-09 14:28:00,
2013-01-09 08:33:00,27.3,24.5,30.25,WSW,248,7.3,7.8,89,0.00,CLR,,0.00,WeatherDisplay:10.37,2013-01-09 14:33:00,
2013-01-09 08:38:00,27.7,24.9,30.26,West,270,9.7,9.7,89,0.00,CLR,,0.00,WeatherDisplay:10.37,2013-01-09 14:38:00,
2013-01-09 08:43:00,28.0,25.2,30.26,West,270,8.1,8.2,89,0.00,CLR,,0.00,WeatherDisplay:10.37,2013-01-09 14:43:00,
2013-01-09 08:48:00,28.6,25.8,30.26,West,270,6.9,6.9,89,0.00,CLR,,0.00,WeatherDisplay:10.37,2013-01-09 14:48:00,
2013-01-09 08:53:00,28.6,25.8,30.27,West,270,7.3,7.8,89,0.00,CLR,,0.00,WeatherDisplay:10.37,2013-01-09 14:53:00,
2013-01-09 08:58:00,28.9,26.1,30.27,WSW,248,10.4,10.4,89,0.00,CLR,,0.00,WeatherDisplay:10.37,2013-01-09 14:58:00,
2013-01-09 09:03:00,29.1,26.3,30.27,WSW,248,6.9,7.8,89,0.00,CLR,,0.00,WeatherDisplay:10.37,2013-01-09 15:03:00,
2013-01-09 09:08:00,29.1,26.3,30.28,WSW,248,9.2,9.3,89,0.00,CLR,,0.00,WeatherDisplay:10.37,2013-01-09 15:08:00,
2013-01-09 09:13:00,29.1,26.3,30.30,WSW,248,9.2,9.8,89,0.00,CLR,,0.00,WeatherDisplay:10.37,2013-01-09 15:13:00,
2013-01-09 09:18:00,29.5,26.4,30.30,WSW,248,9.7,9.7,88,0.00,CLR,,0.00,WeatherDisplay:10.37,2013-01-09 15:18:00,
2013-01-09 09:23:00,29.7,26.5,30.30,WSW,248,9.2,9.2,88,0.00,CLR,,0.00,WeatherDisplay:10.37,2013-01-09 15:23:00,
2013-01-09 09:28:00,30.2,27.3,30.31,WSW,248,6.9,7.5,89,0.00,CLR,,0.00,WeatherDisplay:10.37,2013-01-09 15:28:00,
2013-01-09 09:33:00,30.7,27.9,30.31,WSW,248,9.2,9.3,89,0.00,CLR,,0.00,WeatherDisplay:10.37,2013-01-09 15:33:00,
2013-01-09 09:38:00,31.5,28.6,30.33,WSW,248,9.7,10.4,89,0.00,CLR,,0.00,WeatherDisplay:10.37,2013-01-09 15:38:00,
2013-01-09 09:43:00,31.8,28.9,30.36,WSW,248,13.0,13.9,89,0.00,CLR,,0.00,WeatherDisplay:10.37,2013-01-09 15:43:00,
2013-01-09 09:48:00,32.7,29.8,30.36,WSW,248,13.8,14.2,89,0.00,CLR,,0.00,WeatherDisplay:10.37,2013-01-09 15:48:00,
2013-01-09 09:53:00,32.9,30.3,30.36,SW,225,12.7,12.7,90,0.00,CLR,,0.00,WeatherDisplay:10.37,2013-01-09 15:53:00,
2013-01-09 09:58:00,33.4,30.8,30.36,WSW,248,11.5,11.9,90,0.00,CLR,,0.00,WeatherDisplay:10.37,2013-01-09 15:58:00,
2013-01-09 10:03:00,34.3,31.4,30.38,WSW,248,13.8,14.2,89,0.00,CLR,,0.00,WeatherDisplay:10.37,2013-01-09 16:03:00,
2013-01-09 10:08:00,34.7,31.8,30.38,WSW,248,17.3,17.3,89,0.00,CLR,,0.00,WeatherDisplay:10.37,2013-01-09 16:08:00,
2013-01-09 10:13:00,35.1,32.1,30.38,WSW,248,13.0,13.9,89,0.00,CLR,,0.00,WeatherDisplay:10.37,2013-01-09 16:13:00,
2013-01-09 10:18:00,35.4,32.2,30.39,WSW,248,13.8,13.8,88,0.00,CLR,,0.00,WeatherDisplay:10.37,2013-01-09 16:18:00,
2013-01-09 10:23:00,36.0,32.8,30.40,WSW,248,11.5,11.9,88,0.00,CLR,,0.00,WeatherDisplay:10.37,2013-01-09 16:23:00,
2013-01-09 10:28:00,36.1,32.9,30.39,WSW,248,8.1,8.7,88,0.00,CLR,,0.00,WeatherDisplay:10.37,2013-01-09 16:28:00,
2013-01-09 10:33:00,36.9,33.4,30.39,WSW,248,11.5,11.5,87,0.00,CLR,,0.00,WeatherDisplay:10.37,2013-01-09 16:33:00,
2013-01-09 10:38:00,37.0,33.5,30.39,WSW,248,12.7,12.7,87,0.00,CLR,,0.00,WeatherDisplay:10.37,2013-01-09 16:38:00,
2013-01-09 10:43:00,37.4,33.6,30.39,WSW,248,10.5,10.5,86,0.00,CLR,,0.00,WeatherDisplay:10.37,2013-01-09 16:43:00,
2013-01-09 10:48:00,37.6,33.8,30.39,WSW,248,9.2,9.3,86,0.00,CLR,,0.00,WeatherDisplay:10.37,2013-01-09 16:48:00,
2013-01-09 10:53:00,37.9,34.1,30.39,SW,225,8.4,8.4,86,0.00,CLR,,0.00,WeatherDisplay:10.37,2013-01-09 16:53:00,
2013-01-09 10:58:00,38.3,34.2,30.39,WSW,248,8.1,8.1,85,0.00,CLR,,0.00,WeatherDisplay:10.37,2013-01-09 16:58:00,
2013-01-09 11:03:00,38.8,34.7,30.39,WSW,248,9.2,9.2,85,0.00,CLR,,0.00,WeatherDisplay:10.37,2013-01-09 17:03:00,
2013-01-09 11:08:00,39.4,35.2,30.38,WSW,248,10.4,10.4,85,0.00,CLR,,0.00,WeatherDisplay:10.37,2013-01-09 17:08:00,
2013-01-09 11:13:00,39.7,35.3,30.38,WSW,248,6.9,7.8,84,0.00,CLR,,0.00,WeatherDisplay:10.37,2013-01-09 17:13:00,
2013-01-09 11:18:00,40.1,35.7,30.38,WSW,248,9.2,9.2,84,0.00,CLR,,0.00,WeatherDisplay:10.37,2013-01-09 17:18:00,
2013-01-09 11:23:00,40.5,35.7,30.38,WSW,248,9.2,9.8,83,0.00,CLR,,0.00,WeatherDisplay:10.37,2013-01-09 17:23:00,
2013-01-09 11:28:00,40.6,35.6,30.38,WSW,248,6.9,7.7,82,0.00,CLR,,0.00,WeatherDisplay:10.37,2013-01-09 17:28:00,
2013-01-09 11:33:00,40.8,35.7,30.38,WSW,248,9.2,9.2,82,0.00,CLR,,0.00,WeatherDisplay:10.37,2013-01-09 17:33:00,
2013-01-09 11:38:00,41.2,36.1,30.38,WSW,248,6.9,7.8,82,0.00,CLR,,0.00,WeatherDisplay:10.37,2013-01-09 17:38:00,
2013-01-09 11:43:00,41.5,36.1,30.38,WSW,248,8.1,8.1,81,0.00,CLR,,0.00,WeatherDisplay:10.37,2013-01-09 17:43:00,
2013-01-09 11:48:00,41.7,36.3,30.38,WSW,248,5.8,5.8,81,0.00,CLR,,0.00,WeatherDisplay:10.37,2013-01-09 17:48:00,
2013-01-09 11:53:00,42.1,36.4,30.38,WSW,248,8.1,8.4,80,0.00,CLR,,0.00,WeatherDisplay:10.37,2013-01-09 17:53:00,
2013-01-09 11:58:00,42.4,36.7,30.38,WSW,248,4.6,4.6,80,0.00,CLR,,0.00,WeatherDisplay:10.37,2013-01-09 17:58:00,
2013-01-09 12:03:00,42.6,36.6,30.38,WSW,248,3.5,3.5,79,0.00,CLR,,0.00,WeatherDisplay:10.37,2013-01-09 18:03:00,
2013-01-09 12:08:00,43.0,36.9,30.38,WSW,248,0.0,0.0,79,0.00,CLR,,0.00,WeatherDisplay:10.37,2013-01-09 18:08:00,
2013-01-09 12:13:00,43.7,37.6,30.38,WSW,248,4.6,4.6,79,0.00,CLR,,0.00,WeatherDisplay:10.37,2013-01-09 18:13:00,
2013-01-09 12:18:00,43.9,37.1,30.36,West,270,2.3,0.0,77,0.00,CLR,,0.00,WeatherDisplay:10.37,2013-01-09 18:18:00,
2013-01-09 12:23:00,44.1,37.3,30.36,West,270,0.0,0.0,77,0.00,CLR,,0.00,WeatherDisplay:10.37,2013-01-09 18:23:00,
2013-01-09 12:28:00,44.6,37.2,30.36,West,270,2.3,2.3,75,0.00,CLR,,0.00,WeatherDisplay:10.37,2013-01-09 18:28:00,
2013-01-09 12:33:00,45.1,37.7,30.36,WNW,292,2.4,2.6,75,0.00,CLR,,0.00,WeatherDisplay:10.37,2013-01-09 18:33:00,
2013-01-09 12:38:00,45.3,37.5,30.36,West,270,0.0,0.0,74,0.00,CLR,,0.00,WeatherDisplay:10.37,2013-01-09 18:38:00,
2013-01-09 12:41:00,45.3,37.5,30.36,West,270,0.0,0.0,74,0.00,CLR,,0.00,WeatherDisplay:10.37,2013-01-09 18:41:00,
2013-01-09 12:43:00,45.3,37.5,30.36,West,270,0.0,0.0,74,0.00,CLR,,0.00,WeatherDisplay:10.37,2013-01-09 18:43:00,
2013-01-09 12:44:00,45.3,37.5,30.36,West,270,0.0,0.0,74,0.00,CLR,,0.00,WeatherDisplay:10.37,2013-01-09 18:44:00,
2013-01-09 12:45:00,45.3,37.5,30.36,West,270,0.0,0.0,74,0.00,CLR,,0.00,WeatherDisplay:10.37,2013-01-09 18:45:00,
2013-01-09 12:46:00,45.3,37.5,30.36,West,270,0.0,0.0,74,0.00,CLR,,0.00,WeatherDisplay:10.37,2013-01-09 18:46:00,
2013-01-09 12:48:00,45.3,37.5,30.35,West,270,0.0,0.0,74,0.00,CLR,,0.00,WeatherDisplay:10.37,2013-01-09 18:48:00,
2013-01-09 12:49:00,45.3,37.5,30.35,West,270,0.0,0.0,74,0.00,CLR,,0.00,WeatherDisplay:10.37,2013-01-09 18:49:00,
2013-01-09 12:54:00,45.3,37.2,30.34,NW,315,0.0,0.0,73,0.00,CLR,,0.00,WeatherDisplay:10.37,2013-01-09 18:54:00,
2013-01-09 12:59:00,44.8,36.3,30.34,NNW,338,0.0,0.0,72,0.00,CLR,,0.00,WeatherDisplay:10.37,2013-01-09 18:59:00,
2013-01-09 13:04:00,44.8,36.3,30.35,NNW,338,0.0,0.0,72,0.00,CLR,,0.00,WeatherDisplay:10.37,2013-01-09 19:04:00,
2013-01-09 13:09:00,45.3,37.2,30.35,West,270,0.0,0.0,73,0.00,CLR,,0.00,WeatherDisplay:10.37,2013-01-09 19:09:00,
2013-01-09 13:14:00,45.9,37.3,30.35,West,270,0.0,0.0,72,0.00,CLR,,0.00,WeatherDisplay:10.37,2013-01-09 19:14:00,
2013-01-09 13:19:00,46.0,37.5,30.35,WSW,248,0.0,0.0,72,0.00,CLR,,0.00,WeatherDisplay:10.37,2013-01-09 19:19:00,
2013-01-09 13:24:00,46.4,37.9,30.35,West,270,0.0,0.0,72,0.00,CLR,,0.00,WeatherDisplay:10.37,2013-01-09 19:24:00,
2013-01-09 13:29:00,46.0,37.2,30.35,West,270,0.0,0.0,71,0.00,CLR,,0.00,WeatherDisplay:10.37,2013-01-09 19:29:00,
2013-01-09 13:34:00,45.3,36.1,30.34,NE,45,0.0,0.0,70,0.00,CLR,,0.00,WeatherDisplay:10.37,2013-01-09 19:34:00,
2013-01-09 13:39:00,44.8,35.6,30.35,ENE,68,0.0,0.0,70,0.00,CLR,,0.00,WeatherDisplay:10.37,2013-01-09 19:39:00,
2013-01-09 13:44:00,44.8,35.9,30.35,East,90,0.0,0.0,71,0.00,CLR,,0.00,WeatherDisplay:10.37,2013-01-09 19:44:00,
2013-01-09 13:49:00,44.8,35.9,30.34,East,90,0.0,0.0,71,0.00,CLR,,0.00,WeatherDisplay:10.37,2013-01-09 19:49:00,
2013-01-09 13:54:00,43.5,34.7,30.35,ESE,112,0.0,0.0,71,0.00,CLR,,0.00,WeatherDisplay:10.37,2013-01-09 19:54:00,
2013-01-09 13:59:00,43.5,35.4,30.34,SE,135,0.0,0.0,73,0.00,CLR,,0.00,WeatherDisplay:10.37,2013-01-09 19:59:00,
2013-01-09 14:04:00,43.5,35.8,30.34,SE,135,0.0,0.0,74,0.00,CLR,,0.00,WeatherDisplay:10.37,2013-01-09 20:04:00,
2013-01-09 14:09:00,43.3,35.6,30.34,SSE,158,0.0,0.0,74,0.00,CLR,,0.00,WeatherDisplay:10.37,2013-01-09 20:09:00,
2013-01-09 14:14:00,43.7,36.0,30.34,SE,135,0.0,0.0,74,0.00,CLR,,0.00,WeatherDisplay:10.37,2013-01-09 20:14:00,
2013-01-09 14:19:00,43.7,36.0,30.34,ESE,112,0.0,0.0,74,0.00,CLR,,0.00,WeatherDisplay:10.37,2013-01-09 20:19:00,
2013-01-09 14:24:00,43.5,35.4,30.34,ESE,112,0.0,0.0,73,0.00,CLR,,0.00,WeatherDisplay:10.37,2013-01-09 20:24:00,
2013-01-09 14:29:00,43.3,35.3,30.34,ESE,112,0.0,0.0,73,0.00,CLR,,0.00,WeatherDisplay:10.37,2013-01-09 20:29:00,
2013-01-09 14:34:00,43.7,35.3,30.34,SSE,158,0.0,0.0,72,0.00,CLR,,0.00,WeatherDisplay:10.37,2013-01-09 20:34:00,
2013-01-09 14:39:00,43.7,35.3,30.34,SSW,202,0.0,0.0,72,0.00,CLR,,0.00,WeatherDisplay:10.37,2013-01-09 20:39:00,
2013-01-09 14:44:00,43.7,35.3,30.34,SSE,158,0.0,0.0,72,0.00,CLR,,0.00,WeatherDisplay:10.37,2013-01-09 20:44:00,
2013-01-09 14:49:00,43.3,35.3,30.34,ESE,112,0.0,0.0,73,0.00,CLR,,0.00,WeatherDisplay:10.37,2013-01-09 20:49:00,
2013-01-09 14:54:00,42.4,34.4,30.34,ENE,68,0.0,0.0,73,0.00,CLR,,0.00,WeatherDisplay:10.37,2013-01-09 20:54:00,
2013-01-09 14:59:00,41.9,33.9,30.34,ENE,68,0.0,0.0,73,0.00,CLR,,0.00,WeatherDisplay:10.37,2013-01-09 20:59:00,
2013-01-09 15:04:00,41.0,33.3,30.33,ENE,68,0.0,0.0,74,0.00,CLR,,0.00,WeatherDisplay:10.37,2013-01-09 21:04:00,
2013-01-09 15:09:00,40.6,33.3,30.33,ENE,68,0.0,0.0,75,0.00,CLR,,0.00,WeatherDisplay:10.37,2013-01-09 21:09:00,
2013-01-09 15:14:00,40.1,33.1,30.33,ENE,68,0.0,0.0,76,0.00,CLR,,0.00,WeatherDisplay:10.37,2013-01-09 21:14:00,
2013-01-09 15:19:00,39.6,32.9,30.33,ENE,68,0.0,0.0,77,0.00,CLR,,0.00,WeatherDisplay:10.37,2013-01-09 21:19:00,
2013-01-09 15:24:00,39.6,33.6,30.33,ENE,68,0.0,0.0,79,0.00,CLR,,0.00,WeatherDisplay:10.37,2013-01-09 21:24:00,
2013-01-09 15:29:00,39.6,33.6,30.34,ESE,112,0.0,0.0,79,0.00,CLR,,0.00,WeatherDisplay:10.37,2013-01-09 21:29:00,
2013-01-09 15:34:00,39.4,33.7,30.34,ESE,112,0.0,0.0,80,0.00,CLR,,0.00,WeatherDisplay:10.37,2013-01-09 21:34:00,
2013-01-09 15:39:00,39.0,33.4,30.34,SE,135,0.0,0.0,80,0.00,CLR,,0.00,WeatherDisplay:10.37,2013-01-09 21:39:00,
2013-01-09 15:44:00,38.8,33.2,30.34,SE,135,0.0,0.0,80,0.00,CLR,,0.00,WeatherDisplay:10.37,2013-01-09 21:44:00,
2013-01-09 15:49:00,38.3,32.7,30.34,SE,135,2.3,2.3,80,0.00,CLR,,0.00,WeatherDisplay:10.37,2013-01-09 21:49:00,
2013-01-09 15:54:00,38.1,32.8,30.33,SE,135,0.0,0.0,81,0.00,CLR,,0.00,WeatherDisplay:10.37,2013-01-09 21:54:00,
2013-01-09 15:59:00,38.1,32.8,30.34,SE,135,0.0,0.0,81,0.00,CLR,,0.00,WeatherDisplay:10.37,2013-01-09 21:59:00,
2013-01-09 16:04:00,37.6,32.3,30.34,SSE,158,0.0,0.0,81,0.00,CLR,,0.00,WeatherDisplay:10.37,2013-01-09 22:04:00,
2013-01-09 16:09:00,37.4,32.1,30.34,SSE,158,0.0,0.0,81,0.00,CLR,,0.00,WeatherDisplay:10.37,2013-01-09 22:09:00,
2013-01-09 16:14:00,37.0,32.1,30.33,SE,135,0.0,0.0,82,0.00,CLR,,0.00,WeatherDisplay:10.37,2013-01-09 22:14:00,
2013-01-09 16:19:00,36.5,31.5,30.33,SE,135,0.0,0.0,82,0.00,CLR,,0.00,WeatherDisplay:10.37,2013-01-09 22:19:00,
2013-01-09 16:24:00,36.3,31.4,30.33,SE,135,0.0,0.0,82,0.00,CLR,,0.00,WeatherDisplay:10.37,2013-01-09 22:24:00,
2013-01-09 16:29:00,36.0,31.0,30.33,SE,135,0.0,0.0,82,0.00,CLR,,0.00,WeatherDisplay:10.37,2013-01-09 22:29:00,
2013-01-09 16:34:00,35.8,30.8,30.33,SE,135,0.0,0.0,82,0.00,CLR,,0.00,WeatherDisplay:10.37,2013-01-09 22:34:00,
2013-01-09 16:39:00,35.2,30.3,30.33,ESE,112,0.0,0.0,82,0.00,CLR,,0.00,WeatherDisplay:10.37,2013-01-09 22:39:00,
2013-01-09 16:44:00,35.2,30.3,30.33,ESE,112,0.0,0.0,82,0.00,CLR,,0.00,WeatherDisplay:10.37,2013-01-09 22:44:00,
2013-01-09 16:49:00,35.1,30.4,30.33,ESE,112,0.0,0.0,83,0.00,CLR,,0.00,WeatherDisplay:10.37,2013-01-09 22:49:00,
2013-01-09 16:54:00,34.7,30.1,30.33,ESE,112,0.0,0.0,83,0.00,CLR,,0.00,WeatherDisplay:10.37,2013-01-09 22:54:00,
2013-01-09 16:59:00,34.3,29.7,30.33,ESE,112,0.0,0.0,83,0.00,CLR,,0.00,WeatherDisplay:10.37,2013-01-09 22:59:00,
2013-01-09 17:04:00,34.2,29.8,30.33,ESE,112,0.0,0.0,84,0.00,CLR,,0.00,WeatherDisplay:10.37,2013-01-09 23:04:00,
2013-01-09 17:09:00,34.0,29.7,30.33,ESE,112,0.0,0.0,84,0.00,CLR,,0.00,WeatherDisplay:10.37,2013-01-09 23:09:00,
2013-01-09 17:14:00,33.4,29.1,30.33,SE,135,1.1,1.2,84,0.00,CLR,,0.00,WeatherDisplay:10.37,2013-01-09 23:14:00,
2013-01-09 17:19:00,33.4,29.1,30.33,SE,135,1.1,1.1,84,0.00,CLR,,0.00,WeatherDisplay:10.37,2013-01-09 23:19:00,
2013-01-09 17:24:00,33.3,29.2,30.34,SE,135,0.0,0.0,85,0.00,CLR,,0.00,WeatherDisplay:10.37,2013-01-09 23:24:00,
2013-01-09 17:29:00,33.3,29.2,30.34,SSE,158,0.0,0.0,85,0.00,CLR,,0.00,WeatherDisplay:10.37,2013-01-09 23:29:00,
2013-01-09 17:34:00,33.3,29.5,30.34,SSE,158,0.0,0.0,86,0.00,CLR,,0.00,WeatherDisplay:10.37,2013-01-09 23:34:00,
2013-01-09 17:39:00,33.1,29.3,30.34,SSE,158,0.0,0.0,86,0.00,CLR,,0.00,WeatherDisplay:10.37,2013-01-09 23:39:00,
2013-01-09 17:44:00,33.3,29.5,30.34,SSE,158,0.0,0.0,86,0.00,CLR,,0.00,WeatherDisplay:10.37,2013-01-09 23:44:00,
2013-01-09 17:49:00,33.3,29.8,30.34,SSE,158,0.0,0.0,87,0.00,CLR,,0.00,WeatherDisplay:10.37,2013-01-09 23:49:00,
2013-01-09 17:54:00,33.1,29.6,30.34,SSE,158,0.0,0.0,87,0.00,CLR,,0.00,WeatherDisplay:10.37,2013-01-09 23:54:00,
2013-01-09 17:59:00,32.9,29.2,30.34,SSE,158,0.0,0.0,86,0.00,CLR,,0.00,WeatherDisplay:10.37,2013-01-09 23:59:00,
2013-01-09 18:04:00,32.7,29.0,30.33,SSE,158,0.0,0.0,86,0.00,CLR,,0.00,WeatherDisplay:10.37,2013-01-10 00:04:00,
2013-01-09 18:09:00,32.5,28.8,30.34,SSE,158,0.0,0.0,86,0.00,CLR,,0.00,WeatherDisplay:10.37,2013-01-10 00:09:00,
2013-01-09 18:14:00,32.4,28.6,30.35,SSE,158,5.8,5.8,86,0.00,CLR,,0.00,WeatherDisplay:10.37,2013-01-10 00:14:00,
2013-01-09 18:19:00,32.2,28.7,30.35,South,180,4.6,4.6,87,0.00,CLR,,0.00,WeatherDisplay:10.37,2013-01-10 00:19:00,
2013-01-09 18:24:00,31.6,27.9,30.34,South,180,0.0,0.0,86,0.00,CLR,,0.00,WeatherDisplay:10.37,2013-01-10 00:24:00,
2013-01-09 18:29:00,31.6,27.9,30.35,South,180,1.1,1.1,86,0.00,CLR,,0.00,WeatherDisplay:10.37,2013-01-10 00:29:00,
2013-01-09 18:34:00,31.6,28.2,30.35,South,180,3.8,4.1,87,0.00,CLR,,0.00,WeatherDisplay:10.37,2013-01-10 00:34:00,
2013-01-09 18:39:00,31.8,28.4,30.35,South,180,5.8,6.1,87,0.00,CLR,,0.00,WeatherDisplay:10.37,2013-01-10 00:39:00,
2013-01-09 18:44:00,32.2,29.0,30.35,SSE,158,0.0,0.0,88,0.00,CLR,,0.00,WeatherDisplay:10.37,2013-01-10 00:44:00,
2013-01-09 18:49:00,32.0,28.8,30.35,SSE,158,0.0,0.0,88,0.00,CLR,,0.00,WeatherDisplay:10.37,2013-01-10 00:49:00,
2013-01-09 18:54:00,31.6,28.2,30.35,SE,135,0.0,0.0,87,0.00,CLR,,0.00,WeatherDisplay:10.37,2013-01-10 00:54:00,
2013-01-09 18:59:00,30.9,27.5,30.35,SE,135,0.0,0.0,87,0.00,CLR,,0.00,WeatherDisplay:10.37,2013-01-10 00:59:00,
2013-01-09 19:04:00,30.7,27.3,30.34,SE,135,0.0,0.0,87,0.00,CLR,,0.00,WeatherDisplay:10.37,2013-01-10 01:04:00,
2013-01-09 19:09:00,30.6,27.2,30.34,SE,135,0.0,0.0,87,0.00,CLR,,0.00,WeatherDisplay:10.37,2013-01-10 01:09:00,
2013-01-09 19:14:00,30.4,27.3,30.34,SE,135,0.0,0.0,88,0.00,CLR,,0.00,WeatherDisplay:10.37,2013-01-10 01:14:00,
2013-01-09 19:19:00,30.4,27.3,30.34,SE,135,0.0,0.0,88,0.00,CLR,,0.00,WeatherDisplay:10.37,2013-01-10 01:19:00,
2013-01-09 19:24:00,30.2,27.1,30.34,SSE,158,0.5,0.0,88,0.00,CLR,,0.00,WeatherDisplay:10.37,2013-01-10 01:24:00,
2013-01-09 19:29:00,30.4,27.5,30.34,SSE,158,2.3,2.3,89,0.00,CLR,,0.00,WeatherDisplay:10.37,2013-01-10 01:29:00,
2013-01-09 19:34:00,30.4,27.5,30.35,SSE,158,0.0,0.0,89,0.00,CLR,,0.00,WeatherDisplay:10.37,2013-01-10 01:34:00,
2013-01-09 19:39:00,30.2,27.3,30.35,SSE,158,0.0,0.0,89,0.00,CLR,,0.00,WeatherDisplay:10.37,2013-01-10 01:39:00,
2013-01-09 19:44:00,30.0,27.2,30.34,SSE,158,0.0,0.0,89,0.00,CLR,,0.00,WeatherDisplay:10.37,2013-01-10 01:44:00,
2013-01-09 19:49:00,29.8,27.0,30.34,SSE,158,0.0,0.0,89,0.00,CLR,,0.00,WeatherDisplay:10.37,2013-01-10 01:49:00,
2013-01-09 19:54:00,29.3,26.2,30.34,SSE,158,0.0,0.0,88,0.00,CLR,,0.00,WeatherDisplay:10.37,2013-01-10 01:54:00,
2013-01-09 19:59:00,29.3,26.2,30.34,SSE,158,4.9,5.2,88,0.00,CLR,,0.00,WeatherDisplay:10.37,2013-01-10 01:59:00,
2013-01-09 20:04:00,29.5,26.6,30.34,South,180,5.8,6.1,89,0.00,CLR,,0.00,WeatherDisplay:10.37,2013-01-10 02:04:00,
2013-01-09 20:09:00,29.8,27.0,30.34,South,180,3.5,3.5,89,0.00,CLR,,0.00,WeatherDisplay:10.37,2013-01-10 02:09:00,
2013-01-09 20:14:00,29.8,27.0,30.34,South,180,3.5,3.5,89,0.00,CLR,,0.00,WeatherDisplay:10.37,2013-01-10 02:14:00,
2013-01-09 20:19:00,30.0,27.4,30.34,South,180,3.5,4.1,90,0.00,CLR,,0.00,WeatherDisplay:10.37,2013-01-10 02:19:00,
2013-01-09 20:24:00,29.8,27.3,30.34,South,180,1.1,1.1,90,0.00,CLR,,0.00,WeatherDisplay:10.37,2013-01-10 02:24:00,
2013-01-09 20:29:00,29.8,27.3,30.34,South,180,0.0,0.0,90,0.00,CLR,,0.00,WeatherDisplay:10.37,2013-01-10 02:29:00,
2013-01-09 20:34:00,29.8,27.3,30.34,South,180,4.6,4.6,90,0.00,CLR,,0.00,WeatherDisplay:10.37,2013-01-10 02:34:00,
2013-01-09 20:39:00,29.8,27.3,30.34,SSW,202,1.1,1.1,90,0.00,CLR,,0.00,WeatherDisplay:10.37,2013-01-10 02:39:00,
2013-01-09 20:44:00,30.0,27.4,30.33,SSW,202,1.1,1.2,90,0.00,CLR,,0.00,WeatherDisplay:10.37,2013-01-10 02:44:00,
2013-01-09 20:49:00,30.4,27.8,30.33,SSW,202,1.1,1.1,90,0.00,CLR,,0.00,WeatherDisplay:10.37,2013-01-10 02:49:00,
2013-01-09 20:54:00,30.6,28.0,30.33,SSW,202,0.0,0.0,90,0.00,CLR,,0.00,WeatherDisplay:10.37,2013-01-10 02:54:00,
2013-01-09 20:59:00,30.6,28.0,30.33,SSW,202,1.1,0.0,90,0.00,CLR,,0.00,WeatherDisplay:10.37,2013-01-10 02:59:00,
2013-01-09 21:04:00,30.4,27.8,30.33,SSE,158,0.0,0.0,90,0.00,CLR,,0.00,WeatherDisplay:10.37,2013-01-10 03:04:00,
2013-01-09 21:09:00,29.8,27.3,30.33,SSE,158,0.0,0.0,90,0.00,CLR,,0.00,WeatherDisplay:10.37,2013-01-10 03:09:00,
2013-01-09 21:14:00,29.7,26.8,30.33,SSE,158,0.0,0.0,89,0.00,CLR,,0.00,WeatherDisplay:10.37,2013-01-10 03:14:00,
2013-01-09 21:19:00,29.3,26.5,30.33,SSE,158,0.0,0.0,89,0.00,CLR,,0.00,WeatherDisplay:10.37,2013-01-10 03:19:00,
2013-01-09 21:24:00,29.1,26.3,30.32,SSE,158,0.0,0.0,89,0.00,CLR,,0.00,WeatherDisplay:10.37,2013-01-10 03:24:00,
2013-01-09 21:29:00,28.8,25.9,30.33,SE,135,0.0,0.0,89,0.00,CLR,,0.00,WeatherDisplay:10.37,2013-01-10 03:29:00,
2013-01-09 21:34:00,28.6,25.8,30.33,SE,135,0.0,0.0,89,0.00,CLR,,0.00,WeatherDisplay:10.37,2013-01-10 03:34:00,
2013-01-09 21:39:00,28.6,25.8,30.33,SE,135,0.0,0.0,89,0.00,CLR,,0.00,WeatherDisplay:10.37,2013-01-10 03:39:00,
2013-01-09 21:44:00,28.8,26.2,30.33,SE,135,0.0,0.0,90,0.00,CLR,,0.00,WeatherDisplay:10.37,2013-01-10 03:44:00,
2013-01-09 21:49:00,28.6,26.0,30.33,SE,135,0.0,0.0,90,0.00,CLR,,0.00,WeatherDisplay:10.37,2013-01-10 03:49:00,
2013-01-09 21:54:00,28.6,26.0,30.33,SSE,158,4.9,4.9,90,0.00,CLR,,0.00,WeatherDisplay:10.37,2013-01-10 03:54:00,
2013-01-09 21:59:00,28.6,26.0,30.33,SSE,158,4.6,5.1,90,0.00,CLR,,0.00,WeatherDisplay:10.37,2013-01-10 03:59:00,
2013-01-09 22:04:00,28.4,25.8,30.34,SSW,202,6.5,6.5,90,0.00,CLR,,0.00,WeatherDisplay:10.37,2013-01-10 04:04:00,
2013-01-09 22:09:00,28.6,26.0,30.34,South,180,6.9,6.9,90,0.00,CLR,,0.00,WeatherDisplay:10.37,2013-01-10 04:09:00,
2013-01-09 22:14:00,28.8,26.2,30.34,South,180,3.5,3.8,90,0.00,CLR,,0.00,WeatherDisplay:10.37,2013-01-10 04:14:00,
2013-01-09 22:19:00,28.9,26.4,30.34,South,180,2.3,2.3,90,0.00,CLR,,0.00,WeatherDisplay:10.37,2013-01-10 04:19:00,
2013-01-09 22:24:00,28.9,26.6,30.34,South,180,1.6,1.7,91,0.00,CLR,,0.00,WeatherDisplay:10.37,2013-01-10 04:24:00,
2013-01-09 22:29:00,29.1,26.8,30.34,South,180,1.1,1.2,91,0.00,CLR,,0.00,WeatherDisplay:10.37,2013-01-10 04:29:00,
2013-01-09 22:34:00,29.1,26.8,30.34,South,180,0.0,0.2,91,0.00,CLR,,0.00,WeatherDisplay:10.37,2013-01-10 04:34:00,
2013-01-09 22:39:00,29.1,26.8,30.34,South,180,1.6,1.6,91,0.00,CLR,,0.00,WeatherDisplay:10.37,2013-01-10 04:39:00,
2013-01-09 22:44:00,29.1,26.8,30.34,South,180,0.0,0.0,91,0.00,CLR,,0.00,WeatherDisplay:10.37,2013-01-10 04:44:00,
2013-01-09 22:49:00,28.9,26.4,30.33,SSE,158,0.0,0.0,90,0.00,CLR,,0.00,WeatherDisplay:10.37,2013-01-10 04:49:00,
2013-01-09 22:54:00,28.8,26.2,30.34,SSE,158,0.0,0.0,90,0.00,CLR,,0.00,WeatherDisplay:10.37,2013-01-10 04:54:00,
2013-01-09 22:59:00,28.8,26.2,30.34,SSE,158,2.3,2.3,90,0.00,CLR,,0.00,WeatherDisplay:10.37,2013-01-10 04:59:00,
2013-01-09 23:01:00,28.8,26.2,30.34,SSE,158,1.1,1.7,90,0.00,CLR,,0.00,WeatherDisplay:10.37,2013-01-10 05:01:00,
2013-01-09 23:03:00,28.8,26.2,30.34,SSE,158,1.6,1.7,90,0.00,CLR,,0.00,WeatherDisplay:10.37,2013-01-10 05:03:00,
2013-01-09 23:08:00,28.6,26.0,30.34,SSE,158,0.0,0.4,90,0.00,CLR,,0.00,WeatherDisplay:10.37,2013-01-10 05:08:00,
2013-01-09 23:13:00,28.6,26.0,30.34,SSE,158,0.0,0.0,90,0.00,CLR,,0.00,WeatherDisplay:10.37,2013-01-10 05:13:00,
2013-01-09 23:18:00,28.8,26.2,30.34,SSE,158,0.0,0.0,90,0.00,CLR,,0.00,WeatherDisplay:10.37,2013-01-10 05:18:00,
2013-01-09 23:23:00,28.6,26.0,30.35,SSE,158,0.0,0.0,90,0.00,CLR,,0.00,WeatherDisplay:10.37,2013-01-10 05:23:00,
2013-01-09 23:28:00,28.8,26.2,30.34,SSE,158,0.0,0.0,90,0.00,CLR,,0.00,WeatherDisplay:10.37,2013-01-10 05:28:00,
2013-01-09 23:33:00,28.6,26.0,30.35,SSE,158,0.0,0.6,90,0.00,CLR,,0.00,WeatherDisplay:10.37,2013-01-10 05:33:00,
2013-01-09 23:38:00,28.8,26.2,30.35,SSE,158,0.0,0.0,90,0.00,CLR,,0.00,WeatherDisplay:10.37,2013-01-10 05:38:00,
2013-01-09 23:43:00,28.6,26.0,30.35,SSE,158,0.0,0.0,90,0.00,CLR,,0.00,WeatherDisplay:10.37,2013-01-10 05:43:00,
2013-01-09 23:48:00,28.6,26.0,30.34,SSE,158,1.6,1.7,90,0.00,CLR,,0.00,WeatherDisplay:10.37,2013-01-10 05:48:00,
2013-01-09 23:53:00,28.6,26.0,30.34,SSE,158,2.3,2.3,90,0.00,CLR,,0.00,WeatherDisplay:10.37,2013-01-10 05:53:00,
2013-01-09 23:58:00,28.6,26.0,30.34,SSE,158,0.0,0.0,90,0.00,CLR,,0.00,WeatherDisplay:10.37,2013-01-10 05:58:00,